sensor_id;sensor_type;location;lat;lon;timestamp;P1;durP1;ratioP1;P2;durP2;ratioP2
67500;SDS011;54349;52.528;19.760;2024-02-26T00:00:14;4.50;;;4.00;;
67500;SDS011;54349;52.528;19.760;2024-02-26T00:03:04;7.60;;;5.20;;
67500;SDS011;54349;52.528;19.760;2024-02-26T00:05:32;6.30;;;4.70;;
67500;SDS011;54349;52.528;19.760;2024-02-26T00:08:00;4.90;;;3.90;;
67500;SDS011;54349;52.528;19.760;2024-02-26T00:13:02;5.40;;;4.40;;
67500;SDS011;54349;52.528;19.760;2024-02-26T00:15:33;4.30;;;3.60;;
67500;SDS011;54349;52.528;19.760;2024-02-26T00:18:03;6.10;;;4.10;;
67500;SDS011;54349;52.528;19.760;2024-02-26T00:20:32;5.30;;;4.40;;
67500;SDS011;54349;52.528;19.760;2024-02-26T00:23:00;4.50;;;4.10;;
67500;SDS011;54349;52.528;19.760;2024-02-26T00:25:31;4.50;;;3.40;;
67500;SDS011;54349;52.528;19.760;2024-02-26T00:27:59;4.50;;;3.80;;
67500;SDS011;54349;52.528;19.760;2024-02-26T00:30:29;3.80;;;3.50;;
67500;SDS011;54349;52.528;19.760;2024-02-26T00:32:58;5.20;;;4.40;;
67500;SDS011;54349;52.528;19.760;2024-02-26T00:35:27;5.20;;;4.10;;
67500;SDS011;54349;52.528;19.760;2024-02-26T00:37:55;6.20;;;4.50;;
67500;SDS011;54349;52.528;19.760;2024-02-26T00:40:26;5.30;;;3.90;;
67500;SDS011;54349;52.528;19.760;2024-02-26T00:42:54;6.20;;;4.60;;
67500;SDS011;54349;52.528;19.760;2024-02-26T00:45:24;4.70;;;4.00;;
67500;SDS011;54349;52.528;19.760;2024-02-26T00:47:52;5.70;;;4.30;;
67500;SDS011;54349;52.528;19.760;2024-02-26T00:50:22;5.50;;;4.50;;
67500;SDS011;54349;52.528;19.760;2024-02-26T00:52:50;5.40;;;4.10;;
67500;SDS011;54349;52.528;19.760;2024-02-26T00:55:17;4.20;;;3.50;;
67500;SDS011;54349;52.528;19.760;2024-02-26T00:57:47;5.90;;;4.50;;
67500;SDS011;54349;52.528;19.760;2024-02-26T01:00:15;6.40;;;4.30;;
67500;SDS011;54349;52.528;19.760;2024-02-26T01:02:46;5.40;;;4.50;;
67500;SDS011;54349;52.528;19.760;2024-02-26T01:05:14;5.20;;;4.40;;
67500;SDS011;54349;52.528;19.760;2024-02-26T01:07:45;4.80;;;3.90;;
67500;SDS011;54349;52.528;19.760;2024-02-26T01:10:14;5.90;;;4.40;;
67500;SDS011;54349;52.528;19.760;2024-02-26T01:12:44;5.60;;;4.50;;
67500;SDS011;54349;52.528;19.760;2024-02-26T01:15:12;6.40;;;4.40;;
67500;SDS011;54349;52.528;19.760;2024-02-26T01:17:42;4.80;;;4.10;;
67500;SDS011;54349;52.528;19.760;2024-02-26T01:20:10;5.00;;;4.30;;
67500;SDS011;54349;52.528;19.760;2024-02-26T01:22:41;5.70;;;4.20;;
67500;SDS011;54349;52.528;19.760;2024-02-26T01:25:10;5.10;;;4.00;;
67500;SDS011;54349;52.528;19.760;2024-02-26T01:27:39;6.00;;;4.30;;
67500;SDS011;54349;52.528;19.760;2024-02-26T01:30:10;5.70;;;4.40;;
67500;SDS011;54349;52.528;19.760;2024-02-26T01:32:40;4.90;;;4.00;;
67500;SDS011;54349;52.528;19.760;2024-02-26T01:35:09;5.10;;;4.50;;
67500;SDS011;54349;52.528;19.760;2024-02-26T01:37:41;5.00;;;4.50;;
67500;SDS011;54349;52.528;19.760;2024-02-26T01:40:11;5.40;;;4.90;;
67500;SDS011;54349;52.528;19.760;2024-02-26T01:42:40;5.40;;;4.40;;
67500;SDS011;54349;52.528;19.760;2024-02-26T01:45:12;5.40;;;4.30;;
67500;SDS011;54349;52.528;19.760;2024-02-26T01:47:54;6.20;;;4.20;;
67500;SDS011;54349;52.528;19.760;2024-02-26T01:50:24;5.10;;;4.60;;
67500;SDS011;54349;52.528;19.760;2024-02-26T01:52:53;5.90;;;4.90;;
67500;SDS011;54349;52.528;19.760;2024-02-26T01:55:24;5.10;;;3.90;;
67500;SDS011;54349;52.528;19.760;2024-02-26T01:57:55;5.50;;;4.40;;
67500;SDS011;54349;52.528;19.760;2024-02-26T02:00:23;4.80;;;4.10;;
67500;SDS011;54349;52.528;19.760;2024-02-26T02:51:18;3.50;;;2.90;;
67500;SDS011;54349;52.528;19.760;2024-02-26T02:53:46;4.20;;;3.60;;
67500;SDS011;54349;52.528;19.760;2024-02-26T02:56:17;4.50;;;3.60;;
67500;SDS011;54349;52.528;19.760;2024-02-26T02:58:45;4.50;;;3.40;;
67500;SDS011;54349;52.528;19.760;2024-02-26T03:01:13;4.30;;;3.30;;
67500;SDS011;54349;52.528;19.760;2024-02-26T03:03:43;4.60;;;3.80;;
67500;SDS011;54349;52.528;19.760;2024-02-26T03:06:11;4.30;;;3.40;;
67500;SDS011;54349;52.528;19.760;2024-02-26T03:08:40;4.50;;;3.60;;
67500;SDS011;54349;52.528;19.760;2024-02-26T03:11:12;4.60;;;4.10;;
67500;SDS011;54349;52.528;19.760;2024-02-26T03:13:43;4.10;;;3.70;;
67500;SDS011;54349;52.528;19.760;2024-02-26T03:16:11;4.80;;;3.60;;
67500;SDS011;54349;52.528;19.760;2024-02-26T03:18:41;4.70;;;3.60;;
67500;SDS011;54349;52.528;19.760;2024-02-26T03:21:09;3.80;;;3.00;;
67500;SDS011;54349;52.528;19.760;2024-02-26T03:23:39;4.50;;;3.50;;
67500;SDS011;54349;52.528;19.760;2024-02-26T03:26:08;5.30;;;4.00;;
67500;SDS011;54349;52.528;19.760;2024-02-26T03:28:37;4.30;;;3.40;;
67500;SDS011;54349;52.528;19.760;2024-02-26T03:31:05;5.10;;;3.80;;
67500;SDS011;54349;52.528;19.760;2024-02-26T03:33:34;4.80;;;3.60;;
67500;SDS011;54349;52.528;19.760;2024-02-26T03:36:04;4.90;;;3.40;;
67500;SDS011;54349;52.528;19.760;2024-02-26T03:38:32;4.40;;;3.90;;
67500;SDS011;54349;52.528;19.760;2024-02-26T03:41:02;4.50;;;4.10;;
67500;SDS011;54349;52.528;19.760;2024-02-26T03:43:30;5.00;;;3.60;;
67500;SDS011;54349;52.528;19.760;2024-02-26T03:46:00;3.90;;;3.60;;
67500;SDS011;54349;52.528;19.760;2024-02-26T03:48:29;6.50;;;4.10;;
67500;SDS011;54349;52.528;19.760;2024-02-26T03:50:59;5.70;;;4.20;;
67500;SDS011;54349;52.528;19.760;2024-02-26T03:53:28;4.90;;;3.90;;
67500;SDS011;54349;52.528;19.760;2024-02-26T03:56:02;5.60;;;4.30;;
67500;SDS011;54349;52.528;19.760;2024-02-26T03:58:31;5.10;;;4.50;;
67500;SDS011;54349;52.528;19.760;2024-02-26T04:01:01;6.70;;;5.00;;
67500;SDS011;54349;52.528;19.760;2024-02-26T04:03:30;5.20;;;4.60;;
67500;SDS011;54349;52.528;19.760;2024-02-26T04:05:59;5.90;;;4.40;;
67500;SDS011;54349;52.528;19.760;2024-02-26T04:08:28;7.60;;;5.10;;
67500;SDS011;54349;52.528;19.760;2024-02-26T04:10:58;5.20;;;4.70;;
67500;SDS011;54349;52.528;19.760;2024-02-26T04:13:26;6.90;;;5.20;;
67500;SDS011;54349;52.528;19.760;2024-02-26T04:15:57;6.00;;;5.00;;
67500;SDS011;54349;52.528;19.760;2024-02-26T04:18:25;5.90;;;4.90;;
67500;SDS011;54349;52.528;19.760;2024-02-26T04:20:56;6.70;;;5.00;;
67500;SDS011;54349;52.528;19.760;2024-02-26T04:23:24;5.70;;;4.60;;
67500;SDS011;54349;52.528;19.760;2024-02-26T04:25:55;5.30;;;4.70;;
67500;SDS011;54349;52.528;19.760;2024-02-26T04:28:23;6.70;;;5.30;;
67500;SDS011;54349;52.528;19.760;2024-02-26T04:30:55;5.70;;;4.70;;
67500;SDS011;54349;52.528;19.760;2024-02-26T04:33:24;5.80;;;4.80;;
67500;SDS011;54349;52.528;19.760;2024-02-26T04:35:53;5.60;;;4.70;;
67500;SDS011;54349;52.528;19.760;2024-02-26T04:38:22;5.40;;;4.80;;
67500;SDS011;54349;52.528;19.760;2024-02-26T04:40:52;5.70;;;5.00;;
67500;SDS011;54349;52.528;19.760;2024-02-26T04:43:20;6.50;;;5.60;;
67500;SDS011;54349;52.528;19.760;2024-02-26T04:49:05;7.40;;;5.60;;
67500;SDS011;54349;52.528;19.760;2024-02-26T04:54:10;7.40;;;6.00;;
67500;SDS011;54349;52.528;19.760;2024-02-26T04:56:44;7.40;;;5.40;;
67500;SDS011;54349;52.528;19.760;2024-02-26T04:59:16;7.70;;;5.70;;
67500;SDS011;54349;52.528;19.760;2024-02-26T05:01:48;8.10;;;6.20;;
67500;SDS011;54349;52.528;19.760;2024-02-26T05:04:16;6.10;;;5.40;;
67500;SDS011;54349;52.528;19.760;2024-02-26T05:06:46;6.00;;;5.40;;
67500;SDS011;54349;52.528;19.760;2024-02-26T05:09:31;8.30;;;5.10;;
67500;SDS011;54349;52.528;19.760;2024-02-26T05:12:19;5.70;;;4.70;;
67500;SDS011;54349;52.528;19.760;2024-02-26T05:14:47;7.90;;;5.50;;
67500;SDS011;54349;52.528;19.760;2024-02-26T05:17:18;6.10;;;5.40;;
67500;SDS011;54349;52.528;19.760;2024-02-26T05:19:45;7.80;;;6.10;;
67500;SDS011;54349;52.528;19.760;2024-02-26T05:22:13;6.40;;;5.60;;
67500;SDS011;54349;52.528;19.760;2024-02-26T05:24:43;7.20;;;6.20;;
67500;SDS011;54349;52.528;19.760;2024-02-26T05:27:11;7.80;;;6.30;;
67500;SDS011;54349;52.528;19.760;2024-02-26T05:29:42;6.70;;;5.40;;
67500;SDS011;54349;52.528;19.760;2024-02-26T05:32:10;7.20;;;6.10;;
67500;SDS011;54349;52.528;19.760;2024-02-26T05:34:38;6.10;;;5.30;;
67500;SDS011;54349;52.528;19.760;2024-02-26T05:37:08;7.00;;;6.10;;
67500;SDS011;54349;52.528;19.760;2024-02-26T05:39:36;9.40;;;6.50;;
67500;SDS011;54349;52.528;19.760;2024-02-26T05:42:05;8.00;;;6.50;;
67500;SDS011;54349;52.528;19.760;2024-02-26T05:44:34;8.10;;;6.20;;
67500;SDS011;54349;52.528;19.760;2024-02-26T05:47:02;9.20;;;6.50;;
67500;SDS011;54349;52.528;19.760;2024-02-26T05:49:35;8.90;;;6.90;;
67500;SDS011;54349;52.528;19.760;2024-02-26T05:52:03;8.40;;;6.50;;
67500;SDS011;54349;52.528;19.760;2024-02-26T05:54:33;8.90;;;6.80;;
67500;SDS011;54349;52.528;19.760;2024-02-26T05:57:01;7.80;;;6.90;;
67500;SDS011;54349;52.528;19.760;2024-02-26T05:59:32;10.10;;;7.20;;
67500;SDS011;54349;52.528;19.760;2024-02-26T06:02:00;8.50;;;7.50;;
67500;SDS011;54349;52.528;19.760;2024-02-26T06:04:30;9.00;;;6.90;;
67500;SDS011;54349;52.528;19.760;2024-02-26T06:06:58;8.50;;;6.70;;
67500;SDS011;54349;52.528;19.760;2024-02-26T06:09:28;8.10;;;6.70;;
67500;SDS011;54349;52.528;19.760;2024-02-26T06:11:56;7.60;;;6.40;;
67500;SDS011;54349;52.528;19.760;2024-02-26T06:14:27;9.00;;;6.90;;
67500;SDS011;54349;52.528;19.760;2024-02-26T06:16:55;8.40;;;5.80;;
67500;SDS011;54349;52.528;19.760;2024-02-26T06:19:23;6.40;;;5.40;;
67500;SDS011;54349;52.528;19.760;2024-02-26T06:21:52;15.50;;;6.60;;
67500;SDS011;54349;52.528;19.760;2024-02-26T06:24:21;14.50;;;6.40;;
67500;SDS011;54349;52.528;19.760;2024-02-26T06:26:51;17.70;;;7.60;;
67500;SDS011;54349;52.528;19.760;2024-02-26T06:29:19;24.70;;;9.40;;
67500;SDS011;54349;52.528;19.760;2024-02-26T06:31:47;28.50;;;9.70;;
67500;SDS011;54349;52.528;19.760;2024-02-26T06:34:17;25.10;;;10.10;;
67500;SDS011;54349;52.528;19.760;2024-02-26T06:36:46;24.70;;;10.70;;
67500;SDS011;54349;52.528;19.760;2024-02-26T06:39:16;27.60;;;10.50;;
67500;SDS011;54349;52.528;19.760;2024-02-26T06:41:45;20.10;;;10.30;;
67500;SDS011;54349;52.528;19.760;2024-02-26T06:44:16;23.90;;;9.40;;
67500;SDS011;54349;52.528;19.760;2024-02-26T06:46:44;24.40;;;10.00;;
67500;SDS011;54349;52.528;19.760;2024-02-26T06:49:12;26.60;;;9.90;;
67500;SDS011;54349;52.528;19.760;2024-02-26T06:51:41;18.60;;;9.30;;
67500;SDS011;54349;52.528;19.760;2024-02-26T06:54:09;23.20;;;9.60;;
67500;SDS011;54349;52.528;19.760;2024-02-26T06:56:37;23.80;;;9.90;;
67500;SDS011;54349;52.528;19.760;2024-02-26T06:59:06;22.50;;;9.40;;
67500;SDS011;54349;52.528;19.760;2024-02-26T07:01:34;19.40;;;9.70;;
67500;SDS011;54349;52.528;19.760;2024-02-26T07:04:02;16.90;;;8.90;;
67500;SDS011;54349;52.528;19.760;2024-02-26T07:06:32;21.60;;;10.00;;
67500;SDS011;54349;52.528;19.760;2024-02-26T07:09:00;19.10;;;9.20;;
67500;SDS011;54349;52.528;19.760;2024-02-26T07:11:31;17.90;;;9.10;;
67500;SDS011;54349;52.528;19.760;2024-02-26T07:13:59;18.40;;;9.20;;
67500;SDS011;54349;52.528;19.760;2024-02-26T07:16:29;16.80;;;8.40;;
67500;SDS011;54349;52.528;19.760;2024-02-26T07:18:58;16.90;;;9.20;;
67500;SDS011;54349;52.528;19.760;2024-02-26T07:21:27;21.50;;;9.60;;
67500;SDS011;54349;52.528;19.760;2024-02-26T07:23:56;16.00;;;10.00;;
67500;SDS011;54349;52.528;19.760;2024-02-26T07:26:26;17.10;;;7.80;;
67500;SDS011;54349;52.528;19.760;2024-02-26T07:28:57;19.50;;;9.10;;
67500;SDS011;54349;52.528;19.760;2024-02-26T07:31:32;20.30;;;9.20;;
67500;SDS011;54349;52.528;19.760;2024-02-26T07:34:02;16.80;;;8.80;;
67500;SDS011;54349;52.528;19.760;2024-02-26T07:36:32;17.40;;;8.40;;
67500;SDS011;54349;52.528;19.760;2024-02-26T07:39:01;17.40;;;9.80;;
67500;SDS011;54349;52.528;19.760;2024-02-26T07:41:31;20.10;;;8.70;;
67500;SDS011;54349;52.528;19.760;2024-02-26T07:44:00;17.00;;;9.10;;
67500;SDS011;54349;52.528;19.760;2024-02-26T07:46:29;14.30;;;8.50;;
67500;SDS011;54349;52.528;19.760;2024-02-26T07:48:58;15.60;;;8.90;;
67500;SDS011;54349;52.528;19.760;2024-02-26T07:51:28;14.50;;;8.30;;
67500;SDS011;54349;52.528;19.760;2024-02-26T07:53:56;15.40;;;8.00;;
67500;SDS011;54349;52.528;19.760;2024-02-26T07:56:26;16.00;;;8.40;;
67500;SDS011;54349;52.528;19.760;2024-02-26T07:58:54;12.30;;;8.00;;
67500;SDS011;54349;52.528;19.760;2024-02-26T08:01:25;16.30;;;8.40;;
67500;SDS011;54349;52.528;19.760;2024-02-26T08:03:54;15.40;;;8.30;;
67500;SDS011;54349;52.528;19.760;2024-02-26T08:06:28;14.80;;;8.20;;
67500;SDS011;54349;52.528;19.760;2024-02-26T08:09:04;17.00;;;7.90;;
67500;SDS011;54349;52.528;19.760;2024-02-26T08:11:33;15.80;;;8.60;;
67500;SDS011;54349;52.528;19.760;2024-02-26T08:14:04;14.80;;;8.00;;
67500;SDS011;54349;52.528;19.760;2024-02-26T08:16:32;12.90;;;7.90;;
67500;SDS011;54349;52.528;19.760;2024-02-26T08:19:07;12.70;;;7.40;;
67500;SDS011;54349;52.528;19.760;2024-02-26T08:21:36;14.70;;;8.00;;
67500;SDS011;54349;52.528;19.760;2024-02-26T08:24:06;14.30;;;8.00;;
67500;SDS011;54349;52.528;19.760;2024-02-26T08:26:39;12.00;;;6.90;;
67500;SDS011;54349;52.528;19.760;2024-02-26T08:29:09;15.60;;;8.10;;
67500;SDS011;54349;52.528;19.760;2024-02-26T08:31:37;11.70;;;7.60;;
67500;SDS011;54349;52.528;19.760;2024-02-26T08:34:09;11.70;;;7.20;;
67500;SDS011;54349;52.528;19.760;2024-02-26T08:36:46;15.20;;;8.10;;
67500;SDS011;54349;52.528;19.760;2024-02-26T08:39:17;11.10;;;6.80;;
67500;SDS011;54349;52.528;19.760;2024-02-26T08:41:47;11.00;;;7.00;;
67500;SDS011;54349;52.528;19.760;2024-02-26T08:44:16;13.60;;;7.70;;
67500;SDS011;54349;52.528;19.760;2024-02-26T08:46:45;10.50;;;6.80;;
67500;SDS011;54349;52.528;19.760;2024-02-26T08:49:15;12.30;;;6.90;;
67500;SDS011;54349;52.528;19.760;2024-02-26T08:51:45;12.80;;;6.60;;
67500;SDS011;54349;52.528;19.760;2024-02-26T08:54:13;12.10;;;7.60;;
67500;SDS011;54349;52.528;19.760;2024-02-26T08:56:43;11.50;;;6.70;;
67500;SDS011;54349;52.528;19.760;2024-02-26T08:59:12;14.10;;;7.10;;
67500;SDS011;54349;52.528;19.760;2024-02-26T09:01:45;10.90;;;6.90;;
67500;SDS011;54349;52.528;19.760;2024-02-26T09:04:14;12.40;;;6.30;;
67500;SDS011;54349;52.528;19.760;2024-02-26T09:06:43;11.50;;;6.20;;
67500;SDS011;54349;52.528;19.760;2024-02-26T09:09:12;11.00;;;6.90;;
67500;SDS011;54349;52.528;19.760;2024-02-26T09:11:43;11.70;;;7.50;;
67500;SDS011;54349;52.528;19.760;2024-02-26T09:14:12;9.70;;;6.90;;
67500;SDS011;54349;52.528;19.760;2024-02-26T09:16:42;9.90;;;6.00;;
67500;SDS011;54349;52.528;19.760;2024-02-26T09:19:10;9.20;;;6.20;;
67500;SDS011;54349;52.528;19.760;2024-02-26T09:21:43;11.40;;;6.20;;
67500;SDS011;54349;52.528;19.760;2024-02-26T09:24:12;7.70;;;6.10;;
67500;SDS011;54349;52.528;19.760;2024-02-26T09:26:42;10.60;;;6.50;;
67500;SDS011;54349;52.528;19.760;2024-02-26T09:29:10;10.30;;;6.40;;
67500;SDS011;54349;52.528;19.760;2024-02-26T09:31:41;13.00;;;6.50;;
67500;SDS011;54349;52.528;19.760;2024-02-26T09:34:13;8.00;;;5.80;;
67500;SDS011;54349;52.528;19.760;2024-02-26T09:36:43;9.30;;;5.50;;
67500;SDS011;54349;52.528;19.760;2024-02-26T09:39:12;10.10;;;6.60;;
67500;SDS011;54349;52.528;19.760;2024-02-26T09:41:52;9.20;;;5.90;;
67500;SDS011;54349;52.528;19.760;2024-02-26T09:44:21;11.20;;;6.20;;
67500;SDS011;54349;52.528;19.760;2024-02-26T09:46:52;9.60;;;6.00;;
67500;SDS011;54349;52.528;19.760;2024-02-26T09:49:20;8.80;;;5.30;;
67500;SDS011;54349;52.528;19.760;2024-02-26T09:54:22;9.00;;;6.00;;
67500;SDS011;54349;52.528;19.760;2024-02-26T09:56:55;8.50;;;5.70;;
67500;SDS011;54349;52.528;19.760;2024-02-26T09:59:35;9.70;;;6.00;;
67500;SDS011;54349;52.528;19.760;2024-02-26T10:02:13;9.50;;;5.50;;
67500;SDS011;54349;52.528;19.760;2024-02-26T10:04:42;7.50;;;5.90;;
67500;SDS011;54349;52.528;19.760;2024-02-26T10:07:18;8.90;;;5.80;;
67500;SDS011;54349;52.528;19.760;2024-02-26T10:09:46;8.60;;;7.00;;
67500;SDS011;54349;52.528;19.760;2024-02-26T10:12:17;9.40;;;5.60;;
67500;SDS011;54349;52.528;19.760;2024-02-26T10:14:46;8.10;;;5.20;;
67500;SDS011;54349;52.528;19.760;2024-02-26T10:17:15;8.10;;;5.80;;
67500;SDS011;54349;52.528;19.760;2024-02-26T10:19:44;7.50;;;5.50;;
67500;SDS011;54349;52.528;19.760;2024-02-26T10:22:14;6.20;;;5.10;;
67500;SDS011;54349;52.528;19.760;2024-02-26T10:24:42;7.00;;;5.10;;
67500;SDS011;54349;52.528;19.760;2024-02-26T10:27:12;9.30;;;5.50;;
67500;SDS011;54349;52.528;19.760;2024-02-26T10:29:41;7.40;;;5.60;;
67500;SDS011;54349;52.528;19.760;2024-02-26T10:32:12;9.30;;;5.60;;
67500;SDS011;54349;52.528;19.760;2024-02-26T10:34:41;7.20;;;5.40;;
67500;SDS011;54349;52.528;19.760;2024-02-26T10:37:11;8.60;;;5.20;;
67500;SDS011;54349;52.528;19.760;2024-02-26T10:39:43;7.10;;;4.60;;
67500;SDS011;54349;52.528;19.760;2024-02-26T10:42:16;7.50;;;4.70;;
67500;SDS011;54349;52.528;19.760;2024-02-26T10:44:47;7.70;;;5.10;;
67500;SDS011;54349;52.528;19.760;2024-02-26T10:47:18;6.40;;;4.70;;
67500;SDS011;54349;52.528;19.760;2024-02-26T10:49:46;4.80;;;4.00;;
67500;SDS011;54349;52.528;19.760;2024-02-26T10:52:18;7.10;;;4.80;;
67500;SDS011;54349;52.528;19.760;2024-02-26T10:54:47;6.10;;;4.60;;
67500;SDS011;54349;52.528;19.760;2024-02-26T10:59:50;6.50;;;4.70;;
67500;SDS011;54349;52.528;19.760;2024-02-26T11:02:23;7.00;;;5.10;;
67500;SDS011;54349;52.528;19.760;2024-02-26T11:04:52;7.00;;;4.20;;
67500;SDS011;54349;52.528;19.760;2024-02-26T11:07:23;5.90;;;4.30;;
67500;SDS011;54349;52.528;19.760;2024-02-26T11:09:52;6.80;;;4.70;;
67500;SDS011;54349;52.528;19.760;2024-02-26T11:12:22;6.10;;;4.90;;
67500;SDS011;54349;52.528;19.760;2024-02-26T11:17:25;4.90;;;4.00;;
67500;SDS011;54349;52.528;19.760;2024-02-26T11:19:56;6.50;;;4.10;;
67500;SDS011;54349;52.528;19.760;2024-02-26T11:22:26;4.30;;;3.90;;
67500;SDS011;54349;52.528;19.760;2024-02-26T11:24:56;4.10;;;3.60;;
67500;SDS011;54349;52.528;19.760;2024-02-26T11:27:28;5.90;;;4.40;;
67500;SDS011;54349;52.528;19.760;2024-02-26T11:30:03;4.50;;;3.80;;
67500;SDS011;54349;52.528;19.760;2024-02-26T11:32:39;5.10;;;4.00;;
67500;SDS011;54349;52.528;19.760;2024-02-26T11:35:07;6.20;;;4.20;;
67500;SDS011;54349;52.528;19.760;2024-02-26T11:37:40;6.40;;;4.30;;
67500;SDS011;54349;52.528;19.760;2024-02-26T11:40:13;3.90;;;3.30;;
67500;SDS011;54349;52.528;19.760;2024-02-26T11:42:43;5.90;;;4.10;;
67500;SDS011;54349;52.528;19.760;2024-02-26T11:48:13;5.10;;;3.70;;
67500;SDS011;54349;52.528;19.760;2024-02-26T11:50:47;4.80;;;3.40;;
67500;SDS011;54349;52.528;19.760;2024-02-26T11:53:20;6.10;;;3.90;;
67500;SDS011;54349;52.528;19.760;2024-02-26T11:56:21;5.30;;;3.50;;
67500;SDS011;54349;52.528;19.760;2024-02-26T11:58:57;4.80;;;4.10;;
67500;SDS011;54349;52.528;19.760;2024-02-26T12:04:12;5.20;;;4.00;;
67500;SDS011;54349;52.528;19.760;2024-02-26T12:06:47;4.60;;;3.40;;
67500;SDS011;54349;52.528;19.760;2024-02-26T12:12:13;4.60;;;3.40;;
67500;SDS011;54349;52.528;19.760;2024-02-26T12:14:53;4.30;;;3.50;;
67500;SDS011;54349;52.528;19.760;2024-02-26T12:17:26;6.30;;;3.90;;
67500;SDS011;54349;52.528;19.760;2024-02-26T12:19:55;4.20;;;3.50;;
67500;SDS011;54349;52.528;19.760;2024-02-26T12:22:44;3.80;;;3.40;;
67500;SDS011;54349;52.528;19.760;2024-02-26T12:27:54;4.00;;;3.40;;
67500;SDS011;54349;52.528;19.760;2024-02-26T12:30:23;7.10;;;3.50;;
67500;SDS011;54349;52.528;19.760;2024-02-26T12:33:02;3.90;;;3.50;;
67500;SDS011;54349;52.528;19.760;2024-02-26T12:35:34;3.60;;;2.90;;
67500;SDS011;54349;52.528;19.760;2024-02-26T12:38:05;4.40;;;3.90;;
67500;SDS011;54349;52.528;19.760;2024-02-26T12:40:33;4.90;;;3.40;;
67500;SDS011;54349;52.528;19.760;2024-02-26T12:43:05;3.70;;;2.90;;
67500;SDS011;54349;52.528;19.760;2024-02-26T12:45:34;2.90;;;2.60;;
67500;SDS011;54349;52.528;19.760;2024-02-26T12:48:04;5.30;;;3.00;;
67500;SDS011;54349;52.528;19.760;2024-02-26T12:50:33;3.80;;;3.00;;
67500;SDS011;54349;52.528;19.760;2024-02-26T12:53:03;3.30;;;2.90;;
67500;SDS011;54349;52.528;19.760;2024-02-26T12:55:33;4.70;;;3.80;;
67500;SDS011;54349;52.528;19.760;2024-02-26T12:58:05;3.60;;;2.80;;
67500;SDS011;54349;52.528;19.760;2024-02-26T13:00:34;4.00;;;3.20;;
67500;SDS011;54349;52.528;19.760;2024-02-26T13:03:03;5.00;;;3.90;;
67500;SDS011;54349;52.528;19.760;2024-02-26T13:05:33;3.60;;;2.90;;
67500;SDS011;54349;52.528;19.760;2024-02-26T13:08:02;3.90;;;3.00;;
67500;SDS011;54349;52.528;19.760;2024-02-26T13:10:35;4.10;;;2.90;;
67500;SDS011;54349;52.528;19.760;2024-02-26T13:13:05;4.00;;;3.10;;
67500;SDS011;54349;52.528;19.760;2024-02-26T13:15:36;3.40;;;3.10;;
67500;SDS011;54349;52.528;19.760;2024-02-26T13:18:13;3.20;;;2.90;;
67500;SDS011;54349;52.528;19.760;2024-02-26T13:20:44;3.10;;;2.80;;
67500;SDS011;54349;52.528;19.760;2024-02-26T13:23:13;3.50;;;3.10;;
67500;SDS011;54349;52.528;19.760;2024-02-26T13:25:44;3.60;;;3.30;;
67500;SDS011;54349;52.528;19.760;2024-02-26T13:28:16;3.40;;;3.00;;
67500;SDS011;54349;52.528;19.760;2024-02-26T13:30:52;3.60;;;2.80;;
67500;SDS011;54349;52.528;19.760;2024-02-26T13:33:27;2.90;;;2.60;;
67500;SDS011;54349;52.528;19.760;2024-02-26T13:35:58;3.80;;;3.00;;
67500;SDS011;54349;52.528;19.760;2024-02-26T13:38:28;2.70;;;2.50;;
67500;SDS011;54349;52.528;19.760;2024-02-26T13:40:56;4.10;;;2.70;;
67500;SDS011;54349;52.528;19.760;2024-02-26T13:43:27;3.70;;;2.70;;
67500;SDS011;54349;52.528;19.760;2024-02-26T13:45:55;3.60;;;3.10;;
67500;SDS011;54349;52.528;19.760;2024-02-26T13:48:25;2.90;;;2.60;;
67500;SDS011;54349;52.528;19.760;2024-02-26T13:50:54;2.40;;;2.20;;
67500;SDS011;54349;52.528;19.760;2024-02-26T13:53:24;3.10;;;2.80;;
67500;SDS011;54349;52.528;19.760;2024-02-26T13:55:52;3.90;;;2.70;;
67500;SDS011;54349;52.528;19.760;2024-02-26T13:58:23;2.70;;;2.30;;
67500;SDS011;54349;52.528;19.760;2024-02-26T14:00:54;3.80;;;3.30;;
67500;SDS011;54349;52.528;19.760;2024-02-26T14:03:23;3.00;;;2.70;;
67500;SDS011;54349;52.528;19.760;2024-02-26T14:05:51;3.40;;;3.10;;
67500;SDS011;54349;52.528;19.760;2024-02-26T14:08:21;3.20;;;2.90;;
67500;SDS011;54349;52.528;19.760;2024-02-26T14:10:49;3.40;;;2.90;;
67500;SDS011;54349;52.528;19.760;2024-02-26T14:13:19;3.00;;;2.50;;
67500;SDS011;54349;52.528;19.760;2024-02-26T14:15:48;3.10;;;2.70;;
67500;SDS011;54349;52.528;19.760;2024-02-26T14:18:17;2.40;;;2.20;;
67500;SDS011;54349;52.528;19.760;2024-02-26T14:20:45;3.50;;;3.10;;
67500;SDS011;54349;52.528;19.760;2024-02-26T14:23:15;3.60;;;2.60;;
67500;SDS011;54349;52.528;19.760;2024-02-26T14:25:43;4.80;;;3.40;;
67500;SDS011;54349;52.528;19.760;2024-02-26T14:28:13;2.80;;;2.50;;
67500;SDS011;54349;52.528;19.760;2024-02-26T14:30:49;3.20;;;2.60;;
67500;SDS011;54349;52.528;19.760;2024-02-26T14:33:18;3.50;;;3.00;;
67500;SDS011;54349;52.528;19.760;2024-02-26T14:35:47;5.80;;;3.20;;
67500;SDS011;54349;52.528;19.760;2024-02-26T14:38:15;3.80;;;3.10;;
67500;SDS011;54349;52.528;19.760;2024-02-26T14:40:46;4.40;;;2.80;;
67500;SDS011;54349;52.528;19.760;2024-02-26T14:43:14;4.60;;;2.90;;
67500;SDS011;54349;52.528;19.760;2024-02-26T14:45:42;3.40;;;3.00;;
67500;SDS011;54349;52.528;19.760;2024-02-26T14:48:12;2.70;;;2.50;;
67500;SDS011;54349;52.528;19.760;2024-02-26T14:50:41;3.30;;;3.00;;
67500;SDS011;54349;52.528;19.760;2024-02-26T14:53:10;2.70;;;2.50;;
67500;SDS011;54349;52.528;19.760;2024-02-26T14:55:38;4.50;;;3.00;;
67500;SDS011;54349;52.528;19.760;2024-02-26T14:58:10;3.00;;;2.60;;
67500;SDS011;54349;52.528;19.760;2024-02-26T15:00:39;3.00;;;2.60;;
67500;SDS011;54349;52.528;19.760;2024-02-26T15:03:10;2.70;;;2.50;;
67500;SDS011;54349;52.528;19.760;2024-02-26T15:05:38;3.10;;;2.80;;
67500;SDS011;54349;52.528;19.760;2024-02-26T15:08:09;3.00;;;2.80;;
67500;SDS011;54349;52.528;19.760;2024-02-26T15:10:38;2.50;;;2.30;;
67500;SDS011;54349;52.528;19.760;2024-02-26T15:13:08;2.80;;;2.50;;
67500;SDS011;54349;52.528;19.760;2024-02-26T15:15:49;3.00;;;2.70;;
67500;SDS011;54349;52.528;19.760;2024-02-26T15:18:18;4.00;;;3.30;;
67500;SDS011;54349;52.528;19.760;2024-02-26T15:20:48;3.10;;;2.90;;
67500;SDS011;54349;52.528;19.760;2024-02-26T15:23:16;4.10;;;3.20;;
67500;SDS011;54349;52.528;19.760;2024-02-26T15:25:47;3.20;;;2.90;;
67500;SDS011;54349;52.528;19.760;2024-02-26T15:28:16;4.30;;;3.80;;
67500;SDS011;54349;52.528;19.760;2024-02-26T15:30:47;5.40;;;4.30;;
67500;SDS011;54349;52.528;19.760;2024-02-26T15:33:15;3.80;;;3.50;;
67500;SDS011;54349;52.528;19.760;2024-02-26T15:35:47;5.20;;;4.20;;
67500;SDS011;54349;52.528;19.760;2024-02-26T15:38:15;5.20;;;4.70;;
67500;SDS011;54349;52.528;19.760;2024-02-26T15:40:45;7.50;;;5.30;;
67500;SDS011;54349;52.528;19.760;2024-02-26T15:43:15;6.20;;;5.00;;
67500;SDS011;54349;52.528;19.760;2024-02-26T15:45:43;6.10;;;5.40;;
67500;SDS011;54349;52.528;19.760;2024-02-26T15:48:12;6.20;;;5.30;;
67500;SDS011;54349;52.528;19.760;2024-02-26T15:50:43;6.50;;;5.50;;
67500;SDS011;54349;52.528;19.760;2024-02-26T15:53:11;8.80;;;6.30;;
67500;SDS011;54349;52.528;19.760;2024-02-26T15:55:42;7.40;;;5.80;;
67500;SDS011;54349;52.528;19.760;2024-02-26T15:58:10;6.80;;;6.20;;
67500;SDS011;54349;52.528;19.760;2024-02-26T16:00:41;6.50;;;5.80;;
67500;SDS011;54349;52.528;19.760;2024-02-26T16:03:10;6.90;;;6.10;;